createdAt,value
2022-09-23T00:02:12.542Z,10.90
2022-09-23T00:04:41.486Z,10.90
2022-09-23T00:07:09.572Z,10.80
2022-09-23T00:09:37.804Z,10.80
2022-09-23T00:12:08.984Z,10.70
2022-09-23T00:14:39.257Z,10.70
2022-09-23T00:17:09.040Z,10.70
2022-09-23T00:19:40.174Z,10.60
2022-09-23T00:22:08.832Z,10.60
2022-09-23T00:24:37.035Z,10.60
2022-09-23T00:27:05.553Z,10.60
2022-09-23T00:29:34.005Z,10.60
2022-09-23T00:32:02.402Z,10.60
2022-09-23T00:34:32.757Z,10.60
2022-09-23T00:37:01.209Z,10.50
2022-09-23T00:39:29.354Z,10.50
2022-09-23T00:41:57.387Z,10.50
2022-09-23T00:44:48.080Z,10.50
2022-09-23T00:47:21.852Z,10.40
2022-09-23T00:50:02.050Z,10.40
2022-09-23T00:52:31.663Z,10.40
2022-09-23T00:55:01.881Z,10.30
2022-09-23T00:57:31.263Z,10.30
2022-09-23T01:00:00.003Z,10.30
2022-09-23T01:02:28.403Z,10.40
2022-09-23T01:04:58.541Z,10.40
2022-09-23T01:07:27.118Z,10.30
2022-09-23T01:09:55.167Z,10.30
2022-09-23T01:12:49.870Z,10.20
2022-09-23T01:15:23.051Z,10.20
2022-09-23T01:18:00.676Z,10.20
2022-09-23T01:21:02.104Z,10.10
2022-09-23T01:24:04.433Z,10.10
2022-09-23T01:26:51.095Z,10.10
2022-09-23T01:29:48.002Z,10.00
2022-09-23T01:32:27.335Z,10.00
2022-09-23T01:35:06.652Z,9.90
2022-09-23T01:37:41.186Z,10.00
2022-09-23T01:40:18.204Z,10.00
2022-09-23T01:42:51.752Z,9.90
2022-09-23T01:45:26.539Z,10.00
2022-09-23T01:48:02.533Z,10.00
2022-09-23T01:50:53.488Z,9.90
2022-09-23T01:53:26.685Z,9.90
2022-09-23T01:55:58.335Z,9.80
2022-09-23T01:58:31.623Z,9.80
2022-09-23T02:01:03.269Z,9.80
2022-09-23T02:03:38.647Z,9.80
2022-09-23T02:06:11.964Z,9.80
2022-09-23T02:08:45.633Z,9.80
2022-09-23T02:11:16.197Z,9.80
2022-09-23T02:13:50.704Z,9.80
2022-09-23T02:16:27.539Z,9.80
2022-09-23T02:19:01.632Z,9.90
2022-09-23T02:21:35.360Z,9.80
2022-09-23T02:24:09.049Z,9.80
2022-09-23T02:26:41.363Z,9.80
2022-09-23T02:29:19.583Z,9.80
2022-09-23T02:31:57.382Z,9.80
2022-09-23T02:34:42.900Z,9.80
2022-09-23T02:37:24.940Z,9.70
2022-09-23T02:40:00.555Z,9.70
2022-09-23T02:42:38.522Z,9.70
2022-09-23T02:45:07.211Z,9.70
2022-09-23T02:47:39.659Z,9.70
2022-09-23T02:50:10.653Z,9.60
2022-09-23T02:52:39.466Z,9.70
2022-09-23T02:55:10.969Z,9.60
2022-09-23T02:57:39.335Z,9.60
2022-09-23T03:00:08.715Z,9.50
2022-09-23T03:02:56.851Z,9.50
2022-09-23T03:05:31.638Z,9.50
2022-09-23T03:08:15.382Z,9.50
2022-09-23T03:10:54.388Z,9.50
2022-09-23T03:13:31.479Z,9.50
2022-09-23T03:16:06.710Z,9.40
2022-09-23T03:18:40.376Z,9.40
2022-09-23T03:21:17.341Z,9.40
2022-09-23T03:23:48.469Z,9.40
2022-09-23T03:26:21.676Z,9.40
2022-09-23T03:28:51.286Z,9.40
2022-09-23T03:31:19.661Z,9.40
2022-09-23T03:33:51.386Z,9.30
2022-09-23T03:36:43.589Z,9.40
2022-09-23T03:39:17.536Z,9.40
2022-09-23T03:41:50.891Z,9.30
2022-09-23T03:44:20.192Z,9.30
2022-09-23T03:46:50.893Z,9.20
2022-09-23T03:49:20.932Z,9.20
2022-09-23T03:51:50.688Z,9.20
2022-09-23T03:54:19.687Z,9.30
2022-09-23T03:56:48.289Z,9.10
2022-09-23T03:59:16.668Z,9.10
2022-09-23T04:01:46.072Z,9.10
2022-09-23T04:04:14.302Z,9.20
2022-09-23T04:06:42.517Z,9.10
2022-09-23T04:09:12.420Z,9.10
2022-09-23T04:11:40.744Z,9.10
2022-09-23T04:14:09.063Z,9.10
2022-09-23T04:16:37.488Z,9.10
2022-09-23T04:19:08.517Z,9.00
2022-09-23T04:21:39.851Z,9.00
2022-09-23T04:24:08.928Z,9.00
2022-09-23T04:26:40.377Z,9.00
2022-09-23T04:29:09.789Z,9.00
2022-09-23T04:31:38.297Z,9.00
2022-09-23T04:34:07.093Z,9.00
2022-09-23T04:36:35.442Z,8.90
2022-09-23T04:39:03.935Z,8.90
2022-09-23T04:41:32.475Z,8.90
2022-09-23T04:44:02.722Z,8.90
2022-09-23T04:46:31.126Z,9.00
2022-09-23T04:48:59.284Z,9.00
2022-09-23T04:51:29.019Z,9.00
2022-09-23T04:53:57.552Z,9.00
2022-09-23T04:56:27.444Z,9.10
2022-09-23T04:58:57.240Z,9.00
2022-09-23T05:01:30.030Z,9.00
2022-09-23T05:04:02.458Z,8.90
2022-09-23T05:06:32.192Z,8.90
2022-09-23T05:09:00.831Z,8.90
2022-09-23T05:11:31.440Z,8.90
2022-09-23T05:14:00.461Z,8.90
2022-09-23T05:16:30.428Z,8.80
2022-09-23T05:18:59.771Z,8.80
2022-09-23T05:21:29.020Z,8.70
2022-09-23T05:24:00.694Z,8.70
2022-09-23T05:26:31.095Z,8.80
2022-09-23T05:28:59.914Z,8.70
2022-09-23T05:31:31.262Z,8.70
2022-09-23T05:34:02.087Z,8.70
2022-09-23T05:36:35.721Z,8.70
2022-09-23T05:39:09.001Z,8.60
2022-09-23T05:41:40.446Z,8.70
2022-09-23T05:44:08.525Z,8.70
2022-09-23T05:46:38.699Z,8.80
2022-09-23T05:49:07.589Z,8.80
2022-09-23T05:51:36.412Z,9.00
2022-09-23T05:54:05.917Z,9.40
2022-09-23T05:56:35.756Z,10.10
2022-09-23T05:59:06.002Z,10.50
2022-09-23T06:01:38.754Z,10.10
2022-09-23T06:04:12.596Z,9.90
2022-09-23T06:06:42.961Z,9.90
2022-09-23T06:09:14.714Z,9.80
2022-09-23T06:11:43.471Z,10.00
2022-09-23T06:14:13.830Z,9.90
2022-09-23T06:16:43.001Z,9.90
2022-09-23T06:19:12.702Z,9.90
2022-09-23T06:21:41.539Z,10.00
2022-09-23T06:24:14.456Z,10.00
2022-09-23T06:26:45.038Z,10.10
2022-09-23T06:29:13.899Z,10.20
2022-09-23T06:31:43.218Z,10.30
2022-09-23T06:34:14.964Z,10.50
2022-09-23T06:36:45.499Z,10.50
2022-09-23T06:39:16.195Z,10.60
2022-09-23T06:41:45.421Z,10.70
2022-09-23T06:44:14.027Z,10.60
2022-09-23T06:46:42.269Z,10.60
2022-09-23T06:49:13.589Z,10.70
2022-09-23T06:51:43.221Z,10.70
2022-09-23T06:54:11.980Z,10.70
2022-09-23T06:56:40.318Z,10.70
2022-09-23T06:59:10.962Z,10.80
2022-09-23T07:01:39.476Z,10.80
2022-09-23T07:04:08.117Z,10.80
2022-09-23T07:06:36.549Z,11.00
2022-09-23T07:09:07.615Z,11.20
2022-09-23T07:11:35.852Z,11.30
2022-09-23T07:14:04.032Z,11.30
2022-09-23T07:16:33.745Z,11.40
2022-09-23T07:19:02.669Z,11.40
2022-09-23T07:21:30.896Z,11.40
2022-09-23T07:23:58.946Z,11.40
2022-09-23T07:26:29.693Z,11.50
2022-09-23T07:29:04.810Z,11.60
2022-09-23T07:31:39.116Z,11.60
2022-09-23T07:34:08.668Z,11.70
2022-09-23T07:36:39.613Z,11.70
2022-09-23T07:39:09.010Z,11.70
2022-09-23T07:41:38.923Z,11.70
2022-09-23T07:44:08.750Z,11.70
2022-09-23T07:46:37.489Z,11.70
2022-09-23T07:49:06.762Z,11.70
2022-09-23T07:51:38.296Z,11.90
2022-09-23T07:54:09.025Z,12.20
2022-09-23T07:56:39.573Z,12.40
2022-09-23T07:59:09.349Z,12.50
2022-09-23T08:01:41.543Z,12.50
2022-09-23T08:04:12.975Z,12.50
2022-09-23T08:06:43.380Z,12.70
2022-09-23T08:09:12.668Z,13.00
2022-09-23T08:11:42.931Z,13.20
2022-09-23T08:14:13.090Z,13.20
2022-09-23T08:16:41.975Z,13.20
2022-09-23T08:19:10.230Z,13.10
2022-09-23T08:21:40.526Z,13.10
2022-09-23T08:24:10.154Z,13.30
2022-09-23T08:26:38.288Z,13.30
2022-09-23T08:29:09.840Z,13.30
2022-09-23T08:31:38.196Z,13.30
2022-09-23T08:34:06.633Z,13.30
2022-09-23T08:36:35.302Z,13.30
2022-09-23T08:39:03.907Z,13.20
2022-09-23T08:41:41.100Z,13.20
2022-09-23T08:44:17.692Z,13.30
2022-09-23T08:46:52.814Z,13.30
2022-09-23T08:49:27.306Z,13.50
2022-09-23T08:51:58.491Z,13.60
2022-09-23T08:54:32.059Z,13.80
2022-09-23T08:57:02.669Z,13.90
2022-09-23T08:59:39.172Z,14.10
2022-09-23T09:02:15.171Z,14.20
2022-09-23T09:04:45.728Z,14.30
2022-09-23T09:07:35.798Z,14.60
2022-09-23T09:10:10.444Z,14.80
2022-09-23T09:12:43.703Z,14.90
2022-09-23T09:15:16.757Z,14.90
2022-09-23T09:17:56.763Z,15.10
2022-09-23T09:20:29.681Z,15.20
2022-09-23T09:23:01.121Z,15.10
2022-09-23T09:25:44.354Z,15.20
2022-09-23T09:28:18.999Z,15.30
2022-09-23T09:30:54.077Z,15.50
2022-09-23T09:33:28.945Z,15.50
2022-09-23T09:36:20.925Z,15.80
2022-09-23T09:38:51.059Z,16.10
2022-09-23T09:41:21.463Z,16.30
2022-09-23T09:43:53.579Z,16.60
2022-09-23T09:46:40.651Z,16.60
2022-09-23T09:49:15.085Z,16.80
2022-09-23T09:51:43.432Z,16.80
2022-09-23T09:54:23.059Z,17.00
2022-09-23T09:56:52.007Z,17.10
2022-09-23T09:59:26.742Z,17.10
2022-09-23T10:02:14.468Z,17.20
2022-09-23T10:04:42.545Z,17.40
2022-09-23T10:07:13.960Z,17.20
2022-09-23T10:09:50.030Z,17.00
2022-09-23T10:12:22.686Z,17.10
2022-09-23T10:14:52.703Z,17.30
2022-09-23T10:17:24.541Z,17.50
2022-09-23T10:20:00.994Z,17.90
2022-09-23T10:22:33.193Z,18.20
2022-09-23T10:25:04.612Z,18.70
2022-09-23T10:27:35.217Z,19.20
2022-09-23T10:30:07.659Z,19.80
2022-09-23T10:32:38.685Z,19.60
2022-09-23T10:35:18.037Z,19.30
2022-09-23T10:37:49.344Z,19.60
2022-09-23T10:40:38.306Z,19.50
2022-09-23T10:43:44.472Z,19.80
2022-09-23T10:46:38.074Z,19.90
2022-09-23T10:49:35.756Z,20.50
2022-09-23T10:52:16.211Z,21.10
2022-09-23T10:54:58.132Z,20.90
2022-09-23T10:57:40.634Z,20.60
2022-09-23T11:00:23.328Z,21.10
2022-09-23T11:03:24.429Z,21.30
2022-09-23T11:06:04.767Z,22.10
2022-09-23T11:08:51.618Z,22.50
2022-09-23T11:11:33.984Z,23.00
2022-09-23T11:14:17.344Z,22.80
2022-09-23T11:17:14.711Z,21.90
2022-09-23T11:20:05.308Z,21.60
2022-09-23T11:23:23.011Z,22.40
2022-09-23T11:26:02.972Z,22.90
2022-09-23T11:29:03.737Z,23.00
2022-09-23T11:31:39.469Z,22.50
2022-09-23T11:34:31.132Z,22.40
2022-09-23T11:37:04.721Z,22.30
2022-09-23T11:39:39.024Z,22.40
2022-09-23T11:42:18.965Z,22.40
2022-09-23T11:44:53.117Z,21.90
2022-09-23T11:47:26.365Z,21.40
2022-09-23T11:50:00.666Z,21.00
2022-09-23T11:52:33.056Z,20.70
2022-09-23T11:55:15.257Z,20.30
2022-09-23T11:57:54.233Z,20.30
2022-09-23T12:00:24.718Z,20.30
2022-09-23T12:03:06.314Z,20.00
2022-09-23T12:05:39.272Z,20.30
2022-09-23T12:08:17.913Z,20.30
2022-09-23T12:10:54.504Z,20.00
2022-09-23T12:13:31.567Z,19.80
2022-09-23T12:16:12.622Z,19.80
2022-09-23T12:18:51.212Z,19.70
2022-09-23T12:21:51.237Z,19.60
2022-09-23T12:24:36.227Z,19.70
2022-09-23T12:27:10.921Z,19.20
2022-09-23T12:29:42.105Z,19.10
2022-09-23T12:32:19.002Z,19.10
2022-09-23T12:34:52.011Z,19.10
2022-09-23T12:37:30.026Z,19.00
2022-09-23T12:40:09.303Z,19.10
2022-09-23T12:42:44.975Z,19.00
2022-09-23T12:45:35.015Z,19.00
2022-09-23T12:48:05.130Z,19.10
2022-09-23T12:51:15.785Z,19.00
2022-09-23T12:54:23.595Z,18.90
2022-09-23T12:57:11.568Z,18.90
2022-09-23T12:59:58.215Z,19.00
2022-09-23T13:02:36.071Z,19.10
2022-09-23T13:05:36.855Z,19.00
2022-09-23T13:08:09.343Z,18.80
2022-09-23T13:10:44.079Z,18.80
2022-09-23T13:13:21.865Z,18.70
2022-09-23T13:15:50.101Z,18.60
2022-09-23T13:18:51.179Z,18.60
2022-09-23T13:21:40.379Z,18.70
2022-09-23T13:24:22.196Z,18.70
2022-09-23T13:26:53.736Z,18.60
2022-09-23T13:29:26.732Z,18.50
2022-09-23T13:31:57.923Z,18.60
2022-09-23T13:34:32.401Z,18.80
2022-09-23T13:37:13.638Z,18.90
2022-09-23T13:39:42.199Z,18.80
2022-09-23T13:42:18.095Z,19.00
2022-09-23T13:44:47.115Z,18.90
2022-09-23T13:47:16.701Z,18.90
2022-09-23T13:49:47.993Z,18.90
2022-09-23T13:52:25.534Z,18.90
2022-09-23T13:54:54.182Z,19.10
2022-09-23T13:57:27.448Z,19.10
2022-09-23T13:59:55.886Z,19.20
2022-09-23T14:02:25.896Z,19.20
2022-09-23T14:04:58.312Z,19.00
2022-09-23T14:07:27.207Z,19.10
2022-09-23T14:09:57.439Z,19.00
2022-09-23T14:12:25.815Z,19.00
2022-09-23T14:14:54.686Z,18.90
2022-09-23T14:17:24.039Z,18.80
2022-09-23T14:19:52.329Z,18.60
2022-09-23T14:22:26.768Z,18.50
2022-09-23T14:24:55.792Z,18.50
2022-09-23T14:27:28.711Z,18.50
2022-09-23T14:29:57.973Z,18.60
2022-09-23T14:32:29.365Z,18.50
2022-09-23T14:35:17.144Z,18.60
2022-09-23T14:38:05.992Z,18.50
2022-09-23T14:40:36.216Z,18.50
2022-09-23T14:43:07.423Z,18.50
2022-09-23T14:45:38.372Z,18.40
2022-09-23T14:48:08.533Z,18.40
2022-09-23T14:50:57.156Z,18.40
2022-09-23T14:53:42.924Z,18.40
2022-09-23T14:56:19.895Z,18.30
2022-09-23T14:58:54.372Z,18.30
2022-09-23T15:01:27.682Z,18.20
2022-09-23T15:03:57.637Z,18.10
2022-09-23T15:06:26.674Z,18.20
2022-09-23T15:08:57.989Z,18.00
2022-09-23T15:11:26.497Z,18.00
2022-09-23T15:13:54.936Z,18.00
2022-09-23T15:16:28.188Z,17.90
2022-09-23T15:18:58.514Z,17.90
2022-09-23T15:21:35.071Z,17.90
2022-09-23T15:24:05.137Z,17.70
2022-09-23T15:26:47.596Z,17.80
2022-09-23T15:29:16.022Z,17.80
2022-09-23T15:31:44.155Z,17.80
2022-09-23T15:34:12.502Z,17.70
2022-09-23T15:36:40.558Z,17.60
2022-09-23T15:39:13.268Z,17.50
2022-09-23T15:41:43.402Z,17.50
2022-09-23T15:44:14.471Z,17.50
2022-09-23T15:46:47.699Z,17.50
2022-09-23T15:49:24.477Z,17.50
2022-09-23T15:51:53.279Z,17.50
2022-09-23T15:54:22.712Z,17.50
2022-09-23T15:56:50.752Z,17.40
2022-09-23T15:59:19.349Z,17.40
2022-09-23T16:01:47.619Z,17.40
2022-09-23T16:04:16.036Z,17.30
2022-09-23T16:06:44.659Z,17.40
2022-09-23T16:09:13.738Z,17.30
2022-09-23T16:11:45.940Z,17.30
2022-09-23T16:14:16.179Z,17.30
2022-09-23T16:16:45.468Z,17.30
2022-09-23T16:19:14.084Z,17.30
2022-09-23T16:21:43.237Z,17.20
2022-09-23T16:24:27.312Z,17.20
2022-09-23T16:27:00.845Z,17.20
2022-09-23T16:29:29.099Z,17.10
2022-09-23T16:31:57.343Z,17.10
2022-09-23T16:34:25.466Z,17.00
2022-09-23T16:36:53.729Z,16.90
2022-09-23T16:39:23.085Z,16.90
2022-09-23T16:41:51.821Z,17.00
2022-09-23T16:44:22.135Z,17.00
2022-09-23T16:46:50.982Z,16.90
2022-09-23T16:49:19.217Z,16.80
2022-09-23T16:51:47.370Z,16.80
2022-09-23T16:54:17.357Z,16.70
2022-09-23T16:56:45.576Z,16.60
2022-09-23T16:59:14.668Z,16.50
2022-09-23T17:02:02.246Z,16.50
2022-09-23T17:04:30.490Z,16.50
2022-09-23T17:06:59.298Z,16.50
2022-09-23T17:09:30.229Z,16.40
2022-09-23T17:12:06.004Z,16.40
2022-09-23T17:14:34.613Z,16.30
2022-09-23T17:17:04.181Z,16.30
2022-09-23T17:19:34.057Z,16.20
2022-09-23T17:22:02.280Z,16.10
2022-09-23T17:24:30.601Z,16.10
2022-09-23T17:26:58.646Z,16.00
2022-09-23T17:29:28.997Z,16.10
2022-09-23T17:31:57.109Z,16.10
2022-09-23T17:34:28.994Z,16.00
2022-09-23T17:36:57.200Z,15.80
2022-09-23T17:39:25.309Z,15.80
2022-09-23T17:41:57.442Z,15.70
2022-09-23T17:44:26.532Z,15.60
2022-09-23T17:46:54.731Z,15.50
2022-09-23T17:49:24.237Z,15.50
2022-09-23T17:51:53.973Z,15.50
2022-09-23T17:54:22.039Z,15.50
2022-09-23T17:56:50.120Z,15.50
2022-09-23T17:59:18.189Z,15.50
2022-09-23T18:01:46.305Z,15.40
2022-09-23T18:04:14.509Z,15.30
2022-09-23T18:06:42.835Z,15.30
2022-09-23T18:09:12.712Z,15.20
2022-09-23T18:11:42.963Z,15.10
2022-09-23T18:14:15.342Z,15.00
2022-09-23T18:16:45.604Z,14.90
2022-09-23T18:19:16.871Z,14.90
2022-09-23T18:21:50.648Z,14.90
2022-09-23T18:24:35.723Z,14.90
2022-09-23T18:27:04.176Z,14.90
2022-09-23T18:29:33.740Z,14.90
2022-09-23T18:32:02.482Z,14.80
2022-09-23T18:34:30.798Z,14.80
2022-09-23T18:36:58.869Z,14.80
2022-09-23T18:39:29.277Z,14.80
2022-09-23T18:41:57.325Z,14.70
2022-09-23T18:44:25.479Z,14.70
2022-09-23T18:46:53.522Z,14.70
2022-09-23T18:49:39.494Z,14.70
2022-09-23T18:52:07.694Z,14.80
2022-09-23T18:54:37.657Z,14.80
2022-09-23T18:57:06.012Z,14.80
2022-09-23T18:59:34.081Z,14.80
2022-09-23T19:02:02.695Z,14.80
2022-09-23T19:04:30.995Z,14.90
2022-09-23T19:06:59.045Z,15.00
2022-09-23T19:09:27.329Z,15.10
2022-09-23T19:11:57.608Z,14.90
2022-09-23T19:14:26.030Z,14.90
2022-09-23T19:16:54.114Z,14.90
2022-09-23T19:19:22.304Z,14.90
2022-09-23T19:21:51.738Z,14.80
2022-09-23T19:24:21.169Z,14.80
2022-09-23T19:26:50.274Z,14.90
2022-09-23T19:29:21.719Z,15.00
2022-09-23T19:31:50.972Z,15.00
2022-09-23T19:34:23.811Z,15.00
2022-09-23T19:36:52.806Z,14.90
2022-09-23T19:39:22.672Z,15.00
2022-09-23T19:41:51.431Z,14.90
2022-09-23T19:44:21.427Z,14.80
2022-09-23T19:46:55.040Z,14.90
2022-09-23T19:49:25.176Z,14.90
2022-09-23T19:51:56.210Z,15.00
2022-09-23T19:54:27.242Z,14.90
2022-09-23T19:56:56.118Z,14.90
2022-09-23T19:59:26.676Z,14.80
2022-09-23T20:01:54.895Z,14.80
2022-09-23T20:04:23.595Z,14.70
2022-09-23T20:06:51.961Z,14.70
2022-09-23T20:09:20.136Z,14.60
2022-09-23T20:11:48.419Z,14.60
2022-09-23T20:14:17.837Z,14.60
2022-09-23T20:16:47.273Z,14.50
2022-09-23T20:19:15.785Z,14.50
2022-09-23T20:21:44.004Z,14.40
2022-09-23T20:24:13.033Z,14.30
2022-09-23T20:26:58.464Z,14.30
2022-09-23T20:29:26.571Z,14.30
2022-09-23T20:31:58.767Z,14.30
2022-09-23T20:34:27.363Z,14.30
2022-09-23T20:36:55.484Z,14.30
2022-09-23T20:39:23.629Z,14.30
2022-09-23T20:41:52.554Z,14.30
2022-09-23T20:44:20.922Z,14.30
2022-09-23T20:46:49.524Z,14.30
2022-09-23T20:49:20.673Z,14.20
2022-09-23T20:51:49.403Z,14.20
2022-09-23T20:54:19.149Z,14.10
2022-09-23T20:56:47.467Z,14.10
2022-09-23T20:59:17.581Z,14.10
2022-09-23T21:01:47.465Z,14.10
2022-09-23T21:04:16.119Z,14.10
2022-09-23T21:06:45.678Z,14.20
2022-09-23T21:09:13.958Z,14.20
2022-09-23T21:11:42.052Z,14.20
2022-09-23T21:14:10.685Z,14.20
2022-09-23T21:16:39.034Z,14.20
2022-09-23T21:19:08.506Z,14.20
2022-09-23T21:21:37.152Z,14.20
2022-09-23T21:24:39.752Z,14.20
2022-09-23T21:26:55.390Z,14.10
2022-09-23T21:29:23.847Z,13.90
2022-09-23T21:31:52.167Z,13.90
2022-09-23T21:34:20.278Z,14.00
2022-09-23T21:36:49.359Z,14.00
2022-09-23T21:39:19.436Z,14.10
2022-09-23T21:41:47.644Z,14.20
2022-09-23T21:44:15.960Z,14.30
2022-09-23T21:46:44.332Z,14.30
2022-09-23T21:49:12.500Z,14.40
2022-09-23T21:51:42.132Z,14.40
2022-09-23T21:54:14.137Z,14.40
2022-09-23T21:56:45.111Z,14.50
2022-09-23T21:59:13.501Z,14.50
2022-09-23T22:01:44.853Z,14.50
2022-09-23T22:04:16.930Z,14.50
2022-09-23T22:06:46.306Z,14.50
2022-09-23T22:09:16.150Z,14.50
2022-09-23T22:12:03.172Z,14.50
2022-09-23T22:14:31.319Z,14.50
2022-09-23T22:17:02.222Z,14.40
2022-09-23T22:19:33.201Z,14.40
2022-09-23T22:22:01.391Z,14.40
2022-09-23T22:24:29.631Z,14.40
2022-09-23T22:26:59.190Z,14.30
2022-09-23T22:29:44.839Z,14.30
2022-09-23T22:32:30.855Z,14.30
2022-09-23T22:34:59.126Z,14.30
2022-09-23T22:37:30.523Z,14.30
2022-09-23T22:39:58.884Z,14.30
2022-09-23T22:42:29.280Z,14.20
2022-09-23T22:44:57.532Z,14.20
2022-09-23T22:47:25.599Z,14.20
2022-09-23T22:49:55.508Z,14.20
2022-09-23T22:52:25.365Z,14.20
2022-09-23T22:54:53.892Z,14.10
2022-09-23T22:57:22.214Z,14.10
2022-09-23T22:59:52.124Z,14.10
2022-09-23T23:02:22.546Z,14.20
2022-09-23T23:04:51.599Z,14.10
2022-09-23T23:07:21.679Z,14.20
2022-09-23T23:09:51.490Z,14.20
2022-09-23T23:12:21.054Z,14.20
2022-09-23T23:14:49.603Z,14.20
2022-09-23T23:17:19.381Z,14.10
2022-09-23T23:19:48.281Z,14.10
2022-09-23T23:22:16.327Z,14.00
2022-09-23T23:24:44.486Z,14.00
2022-09-23T23:27:12.507Z,14.00
2022-09-23T23:29:40.777Z,14.10
2022-09-23T23:32:09.842Z,14.10
2022-09-23T23:34:39.544Z,14.20
2022-09-23T23:37:07.782Z,14.20
2022-09-23T23:39:36.147Z,14.10
2022-09-23T23:42:04.859Z,14.10
2022-09-23T23:44:34.419Z,14.10
2022-09-23T23:47:02.786Z,14.00
2022-09-23T23:49:30.861Z,14.00
2022-09-23T23:52:00.496Z,14.00
2022-09-23T23:54:28.676Z,13.90
2022-09-23T23:56:56.889Z,13.90
2022-09-23T23:59:25.932Z,13.90
